sensor_id;sensor_type;location;lat;lon;timestamp;P1;durP1;ratioP1;P2;durP2;ratioP2
6523;SDS011;3295;38.928;-77.052;2023-08-17T00:00:02;2.73;;;1.80;;
6523;SDS011;3295;38.928;-77.052;2023-08-17T00:02:34;2.53;;;1.73;;
6523;SDS011;3295;38.928;-77.052;2023-08-17T00:05:02;2.77;;;2.00;;
6523;SDS011;3295;38.928;-77.052;2023-08-17T00:07:31;2.77;;;1.90;;
6523;SDS011;3295;38.928;-77.052;2023-08-17T00:09:59;2.13;;;1.77;;
6523;SDS011;3295;38.928;-77.052;2023-08-17T00:12:26;2.10;;;1.70;;
6523;SDS011;3295;38.928;-77.052;2023-08-17T00:14:53;3.30;;;2.00;;
6523;SDS011;3295;38.928;-77.052;2023-08-17T00:17:20;2.63;;;1.70;;
6523;SDS011;3295;38.928;-77.052;2023-08-17T00:19:48;2.87;;;1.70;;
6523;SDS011;3295;38.928;-77.052;2023-08-17T00:22:17;2.07;;;1.60;;
6523;SDS011;3295;38.928;-77.052;2023-08-17T00:24:44;2.37;;;1.90;;
6523;SDS011;3295;38.928;-77.052;2023-08-17T00:27:11;2.60;;;1.80;;
6523;SDS011;3295;38.928;-77.052;2023-08-17T00:29:39;4.60;;;1.83;;
6523;SDS011;3295;38.928;-77.052;2023-08-17T00:32:06;2.30;;;1.90;;
6523;SDS011;3295;38.928;-77.052;2023-08-17T00:34:33;4.53;;;1.90;;
6523;SDS011;3295;38.928;-77.052;2023-08-17T00:37:00;2.30;;;1.83;;
6523;SDS011;3295;38.928;-77.052;2023-08-17T00:39:29;2.77;;;1.80;;
6523;SDS011;3295;38.928;-77.052;2023-08-17T00:41:56;2.63;;;1.80;;
6523;SDS011;3295;38.928;-77.052;2023-08-17T00:44:24;3.17;;;1.67;;
6523;SDS011;3295;38.928;-77.052;2023-08-17T00:46:51;4.77;;;2.07;;
6523;SDS011;3295;38.928;-77.052;2023-08-17T00:49:18;3.70;;;1.97;;
6523;SDS011;3295;38.928;-77.052;2023-08-17T00:51:46;2.90;;;2.10;;
6523;SDS011;3295;38.928;-77.052;2023-08-17T00:54:13;2.60;;;2.00;;
6523;SDS011;3295;38.928;-77.052;2023-08-17T00:56:43;2.60;;;1.97;;
6523;SDS011;3295;38.928;-77.052;2023-08-17T00:59:10;3.50;;;2.00;;
6523;SDS011;3295;38.928;-77.052;2023-08-17T01:01:37;4.00;;;2.30;;
6523;SDS011;3295;38.928;-77.052;2023-08-17T01:04:05;3.30;;;2.20;;
6523;SDS011;3295;38.928;-77.052;2023-08-17T01:06:32;3.07;;;2.27;;
6523;SDS011;3295;38.928;-77.052;2023-08-17T01:08:59;3.23;;;2.07;;
6523;SDS011;3295;38.928;-77.052;2023-08-17T01:11:27;2.80;;;1.97;;
6523;SDS011;3295;38.928;-77.052;2023-08-17T01:13:59;5.93;;;2.20;;
6523;SDS011;3295;38.928;-77.052;2023-08-17T01:16:29;2.77;;;1.93;;
6523;SDS011;3295;38.928;-77.052;2023-08-17T01:18:58;2.40;;;1.90;;
6523;SDS011;3295;38.928;-77.052;2023-08-17T01:21:29;2.93;;;1.83;;
6523;SDS011;3295;38.928;-77.052;2023-08-17T01:24:04;2.90;;;2.00;;
6523;SDS011;3295;38.928;-77.052;2023-08-17T01:26:32;3.80;;;2.43;;
6523;SDS011;3295;38.928;-77.052;2023-08-17T01:28:59;3.33;;;2.03;;
6523;SDS011;3295;38.928;-77.052;2023-08-17T01:31:28;4.57;;;2.20;;
6523;SDS011;3295;38.928;-77.052;2023-08-17T01:33:58;4.73;;;2.07;;
6523;SDS011;3295;38.928;-77.052;2023-08-17T01:36:30;3.37;;;2.17;;
6523;SDS011;3295;38.928;-77.052;2023-08-17T01:38:57;6.30;;;2.00;;
6523;SDS011;3295;38.928;-77.052;2023-08-17T01:41:27;4.67;;;2.00;;
6523;SDS011;3295;38.928;-77.052;2023-08-17T01:43:55;5.77;;;2.00;;
6523;SDS011;3295;38.928;-77.052;2023-08-17T01:46:24;2.67;;;2.07;;
6523;SDS011;3295;38.928;-77.052;2023-08-17T01:48:52;4.13;;;2.10;;
6523;SDS011;3295;38.928;-77.052;2023-08-17T01:51:20;2.33;;;1.83;;
6523;SDS011;3295;38.928;-77.052;2023-08-17T01:53:47;3.97;;;1.80;;
6523;SDS011;3295;38.928;-77.052;2023-08-17T01:56:15;4.50;;;2.17;;
6523;SDS011;3295;38.928;-77.052;2023-08-17T01:58:44;4.67;;;2.20;;
6523;SDS011;3295;38.928;-77.052;2023-08-17T02:01:11;3.37;;;2.00;;
6523;SDS011;3295;38.928;-77.052;2023-08-17T02:03:38;2.90;;;1.93;;
6523;SDS011;3295;38.928;-77.052;2023-08-17T02:06:05;3.60;;;2.10;;
6523;SDS011;3295;38.928;-77.052;2023-08-17T02:08:33;3.50;;;2.07;;
6523;SDS011;3295;38.928;-77.052;2023-08-17T02:11:00;4.93;;;2.37;;
6523;SDS011;3295;38.928;-77.052;2023-08-17T02:13:28;6.53;;;2.13;;
6523;SDS011;3295;38.928;-77.052;2023-08-17T02:15:56;3.27;;;2.00;;
6523;SDS011;3295;38.928;-77.052;2023-08-17T02:18:24;2.70;;;2.00;;
6523;SDS011;3295;38.928;-77.052;2023-08-17T02:20:51;3.23;;;2.13;;
6523;SDS011;3295;38.928;-77.052;2023-08-17T02:23:18;4.43;;;2.10;;
6523;SDS011;3295;38.928;-77.052;2023-08-17T02:25:45;2.80;;;2.00;;
6523;SDS011;3295;38.928;-77.052;2023-08-17T02:28:12;2.57;;;1.90;;
6523;SDS011;3295;38.928;-77.052;2023-08-17T02:30:40;3.27;;;2.20;;
6523;SDS011;3295;38.928;-77.052;2023-08-17T02:33:08;3.17;;;2.10;;
6523;SDS011;3295;38.928;-77.052;2023-08-17T02:35:36;6.50;;;2.10;;
6523;SDS011;3295;38.928;-77.052;2023-08-17T02:38:03;2.00;;;1.70;;
6523;SDS011;3295;38.928;-77.052;2023-08-17T02:40:30;3.33;;;1.97;;
6523;SDS011;3295;38.928;-77.052;2023-08-17T02:42:57;4.63;;;2.00;;
6523;SDS011;3295;38.928;-77.052;2023-08-17T02:45:24;3.20;;;2.10;;
6523;SDS011;3295;38.928;-77.052;2023-08-17T02:47:52;2.83;;;2.10;;
6523;SDS011;3295;38.928;-77.052;2023-08-17T02:50:20;4.13;;;2.00;;
6523;SDS011;3295;38.928;-77.052;2023-08-17T02:52:48;5.17;;;2.10;;
6523;SDS011;3295;38.928;-77.052;2023-08-17T02:55:15;6.33;;;2.20;;
6523;SDS011;3295;38.928;-77.052;2023-08-17T02:57:42;5.07;;;2.20;;
6523;SDS011;3295;38.928;-77.052;2023-08-17T03:00:10;6.10;;;2.47;;
6523;SDS011;3295;38.928;-77.052;2023-08-17T03:02:37;4.83;;;2.13;;
6523;SDS011;3295;38.928;-77.052;2023-08-17T03:05:04;5.10;;;1.93;;
6523;SDS011;3295;38.928;-77.052;2023-08-17T03:07:33;2.80;;;1.97;;
6523;SDS011;3295;38.928;-77.052;2023-08-17T03:10:00;4.03;;;2.40;;
6523;SDS011;3295;38.928;-77.052;2023-08-17T03:12:28;4.93;;;2.20;;
6523;SDS011;3295;38.928;-77.052;2023-08-17T03:14:55;3.13;;;2.07;;
6523;SDS011;3295;38.928;-77.052;2023-08-17T03:17:22;3.90;;;2.30;;
6523;SDS011;3295;38.928;-77.052;2023-08-17T03:19:50;2.43;;;1.77;;
6523;SDS011;3295;38.928;-77.052;2023-08-17T03:22:17;7.07;;;2.53;;
6523;SDS011;3295;38.928;-77.052;2023-08-17T03:24:46;4.50;;;2.10;;
6523;SDS011;3295;38.928;-77.052;2023-08-17T03:27:13;7.37;;;2.10;;
6523;SDS011;3295;38.928;-77.052;2023-08-17T03:29:41;2.93;;;2.03;;
6523;SDS011;3295;38.928;-77.052;2023-08-17T03:32:08;3.10;;;2.07;;
6523;SDS011;3295;38.928;-77.052;2023-08-17T03:34:35;5.30;;;2.20;;
6523;SDS011;3295;38.928;-77.052;2023-08-17T03:37:03;2.83;;;2.00;;
6523;SDS011;3295;38.928;-77.052;2023-08-17T03:39:30;4.50;;;2.23;;
6523;SDS011;3295;38.928;-77.052;2023-08-17T03:41:59;3.23;;;2.20;;
6523;SDS011;3295;38.928;-77.052;2023-08-17T03:44:26;2.93;;;1.90;;
6523;SDS011;3295;38.928;-77.052;2023-08-17T03:46:54;3.80;;;2.10;;
6523;SDS011;3295;38.928;-77.052;2023-08-17T03:49:21;3.83;;;2.20;;
6523;SDS011;3295;38.928;-77.052;2023-08-17T03:51:48;2.80;;;1.90;;
6523;SDS011;3295;38.928;-77.052;2023-08-17T03:54:16;3.97;;;2.17;;
6523;SDS011;3295;38.928;-77.052;2023-08-17T03:56:44;3.03;;;1.70;;
6523;SDS011;3295;38.928;-77.052;2023-08-17T03:59:13;5.40;;;2.40;;
6523;SDS011;3295;38.928;-77.052;2023-08-17T04:01:40;7.67;;;2.33;;
6523;SDS011;3295;38.928;-77.052;2023-08-17T04:04:08;3.27;;;2.07;;
6523;SDS011;3295;38.928;-77.052;2023-08-17T04:06:35;4.23;;;2.20;;
6523;SDS011;3295;38.928;-77.052;2023-08-17T04:09:04;3.80;;;2.20;;
6523;SDS011;3295;38.928;-77.052;2023-08-17T04:11:34;3.40;;;2.30;;
6523;SDS011;3295;38.928;-77.052;2023-08-17T04:14:01;6.17;;;2.60;;
6523;SDS011;3295;38.928;-77.052;2023-08-17T04:16:30;4.47;;;2.17;;
6523;SDS011;3295;38.928;-77.052;2023-08-17T04:18:57;3.43;;;2.17;;
6523;SDS011;3295;38.928;-77.052;2023-08-17T04:21:24;5.47;;;2.10;;
6523;SDS011;3295;38.928;-77.052;2023-08-17T04:23:52;5.20;;;2.17;;
6523;SDS011;3295;38.928;-77.052;2023-08-17T04:26:19;3.20;;;2.20;;
6523;SDS011;3295;38.928;-77.052;2023-08-17T04:28:46;4.67;;;2.20;;
6523;SDS011;3295;38.928;-77.052;2023-08-17T04:31:13;6.00;;;2.00;;
6523;SDS011;3295;38.928;-77.052;2023-08-17T04:33:44;7.70;;;2.10;;
6523;SDS011;3295;38.928;-77.052;2023-08-17T04:36:11;2.73;;;2.00;;
6523;SDS011;3295;38.928;-77.052;2023-08-17T04:38:38;2.97;;;2.03;;
6523;SDS011;3295;38.928;-77.052;2023-08-17T04:41:05;3.43;;;2.10;;
6523;SDS011;3295;38.928;-77.052;2023-08-17T04:43:33;3.67;;;2.10;;
6523;SDS011;3295;38.928;-77.052;2023-08-17T04:46:00;2.43;;;1.90;;
6523;SDS011;3295;38.928;-77.052;2023-08-17T04:48:27;2.80;;;2.00;;
6523;SDS011;3295;38.928;-77.052;2023-08-17T04:50:56;2.60;;;1.90;;
6523;SDS011;3295;38.928;-77.052;2023-08-17T04:53:23;3.87;;;2.40;;
6523;SDS011;3295;38.928;-77.052;2023-08-17T04:55:50;4.93;;;2.13;;
6523;SDS011;3295;38.928;-77.052;2023-08-17T04:58:18;3.43;;;2.33;;
6523;SDS011;3295;38.928;-77.052;2023-08-17T05:00:45;3.87;;;2.33;;
6523;SDS011;3295;38.928;-77.052;2023-08-17T05:03:13;2.83;;;2.00;;
6523;SDS011;3295;38.928;-77.052;2023-08-17T05:05:40;4.10;;;2.50;;
6523;SDS011;3295;38.928;-77.052;2023-08-17T05:08:09;3.43;;;1.93;;
6523;SDS011;3295;38.928;-77.052;2023-08-17T05:10:36;3.67;;;2.10;;
6523;SDS011;3295;38.928;-77.052;2023-08-17T05:13:03;4.80;;;2.17;;
6523;SDS011;3295;38.928;-77.052;2023-08-17T05:15:30;3.50;;;2.00;;
6523;SDS011;3295;38.928;-77.052;2023-08-17T05:17:58;5.77;;;2.77;;
6523;SDS011;3295;38.928;-77.052;2023-08-17T05:20:25;5.63;;;2.13;;
6523;SDS011;3295;38.928;-77.052;2023-08-17T05:22:52;6.13;;;2.00;;
6523;SDS011;3295;38.928;-77.052;2023-08-17T05:25:21;3.87;;;2.10;;
6523;SDS011;3295;38.928;-77.052;2023-08-17T05:27:48;4.37;;;2.17;;
6523;SDS011;3295;38.928;-77.052;2023-08-17T05:30:16;4.43;;;2.13;;
6523;SDS011;3295;38.928;-77.052;2023-08-17T05:32:43;4.20;;;2.37;;
6523;SDS011;3295;38.928;-77.052;2023-08-17T05:35:10;4.27;;;2.03;;
6523;SDS011;3295;38.928;-77.052;2023-08-17T05:37:38;3.73;;;2.13;;
6523;SDS011;3295;38.928;-77.052;2023-08-17T05:40:05;5.17;;;2.30;;
6523;SDS011;3295;38.928;-77.052;2023-08-17T05:42:35;4.83;;;2.30;;
6523;SDS011;3295;38.928;-77.052;2023-08-17T05:45:03;3.60;;;2.30;;
6523;SDS011;3295;38.928;-77.052;2023-08-17T05:47:30;3.13;;;2.27;;
6523;SDS011;3295;38.928;-77.052;2023-08-17T05:49:58;4.00;;;2.13;;
6523;SDS011;3295;38.928;-77.052;2023-08-17T05:52:25;4.20;;;2.50;;
6523;SDS011;3295;38.928;-77.052;2023-08-17T05:54:52;3.43;;;2.03;;
6523;SDS011;3295;38.928;-77.052;2023-08-17T05:57:19;3.07;;;2.20;;
6523;SDS011;3295;38.928;-77.052;2023-08-17T05:59:48;4.27;;;2.50;;
6523;SDS011;3295;38.928;-77.052;2023-08-17T06:02:15;4.00;;;2.47;;
6523;SDS011;3295;38.928;-77.052;2023-08-17T06:04:42;4.17;;;2.27;;
6523;SDS011;3295;38.928;-77.052;2023-08-17T06:07:09;3.43;;;2.20;;
6523;SDS011;3295;38.928;-77.052;2023-08-17T06:09:37;4.60;;;2.67;;
6523;SDS011;3295;38.928;-77.052;2023-08-17T06:12:04;5.17;;;2.20;;
6523;SDS011;3295;38.928;-77.052;2023-08-17T06:14:32;3.67;;;2.50;;
6523;SDS011;3295;38.928;-77.052;2023-08-17T06:17:01;3.40;;;2.10;;
6523;SDS011;3295;38.928;-77.052;2023-08-17T06:19:28;6.43;;;2.33;;
6523;SDS011;3295;38.928;-77.052;2023-08-17T06:21:55;4.13;;;2.23;;
6523;SDS011;3295;38.928;-77.052;2023-08-17T06:24:22;4.37;;;2.37;;
6523;SDS011;3295;38.928;-77.052;2023-08-17T06:26:50;7.70;;;2.30;;
6523;SDS011;3295;38.928;-77.052;2023-08-17T06:29:17;5.87;;;2.30;;
6523;SDS011;3295;38.928;-77.052;2023-08-17T06:31:44;2.73;;;1.90;;
6523;SDS011;3295;38.928;-77.052;2023-08-17T06:34:13;3.37;;;2.43;;
6523;SDS011;3295;38.928;-77.052;2023-08-17T06:36:40;3.43;;;2.27;;
6523;SDS011;3295;38.928;-77.052;2023-08-17T06:39:09;4.77;;;2.50;;
6523;SDS011;3295;38.928;-77.052;2023-08-17T06:41:36;4.23;;;2.43;;
6523;SDS011;3295;38.928;-77.052;2023-08-17T06:44:04;3.57;;;2.40;;
6523;SDS011;3295;38.928;-77.052;2023-08-17T06:46:32;3.10;;;2.10;;
6523;SDS011;3295;38.928;-77.052;2023-08-17T06:48:59;3.67;;;2.13;;
6523;SDS011;3295;38.928;-77.052;2023-08-17T06:51:27;3.27;;;2.20;;
6523;SDS011;3295;38.928;-77.052;2023-08-17T06:53:55;3.13;;;2.03;;
6523;SDS011;3295;38.928;-77.052;2023-08-17T06:56:22;3.67;;;2.43;;
6523;SDS011;3295;38.928;-77.052;2023-08-17T06:58:49;5.73;;;2.50;;
6523;SDS011;3295;38.928;-77.052;2023-08-17T07:01:17;4.57;;;2.20;;
6523;SDS011;3295;38.928;-77.052;2023-08-17T07:03:44;6.47;;;2.30;;
6523;SDS011;3295;38.928;-77.052;2023-08-17T07:06:11;8.73;;;2.40;;
6523;SDS011;3295;38.928;-77.052;2023-08-17T07:08:40;3.57;;;2.30;;
6523;SDS011;3295;38.928;-77.052;2023-08-17T07:11:07;3.77;;;2.23;;
6523;SDS011;3295;38.928;-77.052;2023-08-17T07:13:34;4.93;;;2.57;;
6523;SDS011;3295;38.928;-77.052;2023-08-17T07:16:02;4.80;;;2.70;;
6523;SDS011;3295;38.928;-77.052;2023-08-17T07:18:29;3.33;;;2.40;;
6523;SDS011;3295;38.928;-77.052;2023-08-17T07:20:56;5.53;;;2.67;;
6523;SDS011;3295;38.928;-77.052;2023-08-17T07:23:24;6.17;;;2.33;;
6523;SDS011;3295;38.928;-77.052;2023-08-17T07:25:52;3.70;;;2.50;;
6523;SDS011;3295;38.928;-77.052;2023-08-17T07:28:19;4.93;;;2.40;;
6523;SDS011;3295;38.928;-77.052;2023-08-17T07:30:47;3.30;;;2.50;;
6523;SDS011;3295;38.928;-77.052;2023-08-17T07:33:14;2.97;;;2.20;;
6523;SDS011;3295;38.928;-77.052;2023-08-17T07:35:41;3.90;;;2.63;;
6523;SDS011;3295;38.928;-77.052;2023-08-17T07:38:08;3.40;;;2.20;;
6523;SDS011;3295;38.928;-77.052;2023-08-17T07:40:35;5.90;;;2.17;;
6523;SDS011;3295;38.928;-77.052;2023-08-17T07:43:04;3.17;;;2.03;;
6523;SDS011;3295;38.928;-77.052;2023-08-17T07:45:32;4.27;;;2.43;;
6523;SDS011;3295;38.928;-77.052;2023-08-17T07:47:59;4.47;;;2.47;;
6523;SDS011;3295;38.928;-77.052;2023-08-17T07:50:26;4.03;;;2.40;;
6523;SDS011;3295;38.928;-77.052;2023-08-17T07:52:54;3.33;;;2.40;;
6523;SDS011;3295;38.928;-77.052;2023-08-17T07:55:21;3.43;;;2.13;;
6523;SDS011;3295;38.928;-77.052;2023-08-17T07:57:48;7.47;;;2.50;;
6523;SDS011;3295;38.928;-77.052;2023-08-17T08:00:17;5.07;;;2.20;;
6523;SDS011;3295;38.928;-77.052;2023-08-17T08:02:45;3.40;;;2.47;;
6523;SDS011;3295;38.928;-77.052;2023-08-17T08:05:13;6.93;;;2.97;;
6523;SDS011;3295;38.928;-77.052;2023-08-17T08:07:40;5.73;;;2.27;;
6523;SDS011;3295;38.928;-77.052;2023-08-17T08:10:08;4.47;;;2.47;;
6523;SDS011;3295;38.928;-77.052;2023-08-17T08:12:35;6.33;;;2.40;;
6523;SDS011;3295;38.928;-77.052;2023-08-17T08:15:02;4.87;;;2.40;;
6523;SDS011;3295;38.928;-77.052;2023-08-17T08:17:32;7.13;;;2.40;;
6523;SDS011;3295;38.928;-77.052;2023-08-17T08:19:59;7.83;;;2.87;;
6523;SDS011;3295;38.928;-77.052;2023-08-17T08:22:26;5.43;;;2.40;;
6523;SDS011;3295;38.928;-77.052;2023-08-17T08:24:53;4.73;;;2.77;;
6523;SDS011;3295;38.928;-77.052;2023-08-17T08:27:20;5.47;;;2.17;;
6523;SDS011;3295;38.928;-77.052;2023-08-17T08:29:48;8.43;;;3.30;;
6523;SDS011;3295;38.928;-77.052;2023-08-17T08:32:15;2.93;;;2.20;;
6523;SDS011;3295;38.928;-77.052;2023-08-17T08:34:44;4.17;;;2.47;;
6523;SDS011;3295;38.928;-77.052;2023-08-17T08:37:11;3.20;;;2.20;;
6523;SDS011;3295;38.928;-77.052;2023-08-17T08:39:47;4.47;;;2.20;;
6523;SDS011;3295;38.928;-77.052;2023-08-17T08:42:15;2.97;;;2.00;;
6523;SDS011;3295;38.928;-77.052;2023-08-17T08:44:42;3.60;;;2.30;;
6523;SDS011;3295;38.928;-77.052;2023-08-17T08:47:09;4.20;;;2.50;;
6523;SDS011;3295;38.928;-77.052;2023-08-17T08:49:37;2.90;;;2.13;;
6523;SDS011;3295;38.928;-77.052;2023-08-17T08:52:07;3.47;;;2.53;;
6523;SDS011;3295;38.928;-77.052;2023-08-17T08:54:35;3.77;;;2.43;;
6523;SDS011;3295;38.928;-77.052;2023-08-17T08:57:04;3.47;;;2.40;;
6523;SDS011;3295;38.928;-77.052;2023-08-17T08:59:33;2.73;;;1.97;;
6523;SDS011;3295;38.928;-77.052;2023-08-17T09:02:01;4.30;;;2.53;;
6523;SDS011;3295;38.928;-77.052;2023-08-17T09:04:28;3.07;;;2.10;;
6523;SDS011;3295;38.928;-77.052;2023-08-17T09:06:55;3.37;;;2.20;;
6523;SDS011;3295;38.928;-77.052;2023-08-17T09:09:24;3.77;;;2.33;;
6523;SDS011;3295;38.928;-77.052;2023-08-17T09:11:52;4.13;;;2.20;;
6523;SDS011;3295;38.928;-77.052;2023-08-17T09:14:19;3.77;;;2.40;;
6523;SDS011;3295;38.928;-77.052;2023-08-17T09:16:46;4.93;;;2.40;;
6523;SDS011;3295;38.928;-77.052;2023-08-17T09:19:13;8.23;;;2.10;;
6523;SDS011;3295;38.928;-77.052;2023-08-17T09:21:41;3.60;;;2.40;;
6523;SDS011;3295;38.928;-77.052;2023-08-17T09:24:08;6.03;;;2.33;;
6523;SDS011;3295;38.928;-77.052;2023-08-17T09:26:37;5.83;;;2.43;;
6523;SDS011;3295;38.928;-77.052;2023-08-17T09:29:16;3.70;;;2.60;;
6523;SDS011;3295;38.928;-77.052;2023-08-17T09:31:43;2.97;;;2.17;;
6523;SDS011;3295;38.928;-77.052;2023-08-17T09:34:11;4.27;;;2.53;;
6523;SDS011;3295;38.928;-77.052;2023-08-17T09:36:38;4.67;;;2.70;;
6523;SDS011;3295;38.928;-77.052;2023-08-17T09:39:06;3.73;;;2.50;;
6523;SDS011;3295;38.928;-77.052;2023-08-17T09:41:39;3.03;;;2.23;;
6523;SDS011;3295;38.928;-77.052;2023-08-17T09:44:08;4.20;;;2.37;;
6523;SDS011;3295;38.928;-77.052;2023-08-17T09:46:35;4.50;;;2.57;;
6523;SDS011;3295;38.928;-77.052;2023-08-17T09:49:03;4.77;;;2.80;;
6523;SDS011;3295;38.928;-77.052;2023-08-17T09:51:31;3.07;;;2.30;;
6523;SDS011;3295;38.928;-77.052;2023-08-17T09:53:58;4.37;;;2.40;;
6523;SDS011;3295;38.928;-77.052;2023-08-17T09:56:25;3.40;;;2.33;;
6523;SDS011;3295;38.928;-77.052;2023-08-17T09:58:55;5.00;;;2.53;;
6523;SDS011;3295;38.928;-77.052;2023-08-17T10:01:22;4.20;;;2.50;;
6523;SDS011;3295;38.928;-77.052;2023-08-17T10:03:50;7.87;;;2.60;;
6523;SDS011;3295;38.928;-77.052;2023-08-17T10:06:20;7.67;;;2.50;;
6523;SDS011;3295;38.928;-77.052;2023-08-17T10:08:49;4.90;;;2.40;;
6523;SDS011;3295;38.928;-77.052;2023-08-17T10:11:19;4.23;;;2.40;;
6523;SDS011;3295;38.928;-77.052;2023-08-17T10:13:48;4.63;;;2.53;;
6523;SDS011;3295;38.928;-77.052;2023-08-17T10:16:21;4.73;;;2.70;;
6523;SDS011;3295;38.928;-77.052;2023-08-17T10:18:50;6.80;;;2.30;;
6523;SDS011;3295;38.928;-77.052;2023-08-17T10:21:21;4.03;;;2.50;;
6523;SDS011;3295;38.928;-77.052;2023-08-17T10:23:50;4.23;;;2.43;;
6523;SDS011;3295;38.928;-77.052;2023-08-17T10:26:19;3.67;;;2.37;;
6523;SDS011;3295;38.928;-77.052;2023-08-17T10:28:46;4.87;;;2.67;;
6523;SDS011;3295;38.928;-77.052;2023-08-17T10:31:15;4.87;;;2.40;;
6523;SDS011;3295;38.928;-77.052;2023-08-17T10:33:44;4.17;;;2.40;;
6523;SDS011;3295;38.928;-77.052;2023-08-17T10:36:13;3.87;;;2.37;;
6523;SDS011;3295;38.928;-77.052;2023-08-17T10:38:40;4.93;;;2.20;;
6523;SDS011;3295;38.928;-77.052;2023-08-17T10:41:08;6.77;;;2.77;;
6523;SDS011;3295;38.928;-77.052;2023-08-17T10:46:18;4.93;;;2.57;;
6523;SDS011;3295;38.928;-77.052;2023-08-17T10:48:46;3.67;;;2.53;;
6523;SDS011;3295;38.928;-77.052;2023-08-17T10:51:14;7.00;;;2.43;;
6523;SDS011;3295;38.928;-77.052;2023-08-17T10:53:42;6.63;;;2.43;;
6523;SDS011;3295;38.928;-77.052;2023-08-17T10:56:11;4.00;;;2.43;;
6523;SDS011;3295;38.928;-77.052;2023-08-17T10:58:38;6.13;;;2.40;;
6523;SDS011;3295;38.928;-77.052;2023-08-17T11:01:06;3.53;;;2.10;;
6523;SDS011;3295;38.928;-77.052;2023-08-17T11:03:33;6.27;;;2.60;;
6523;SDS011;3295;38.928;-77.052;2023-08-17T11:06:15;11.53;;;2.50;;
6523;SDS011;3295;38.928;-77.052;2023-08-17T11:08:52;4.23;;;1.93;;
6523;SDS011;3295;38.928;-77.052;2023-08-17T11:11:20;5.70;;;2.43;;
6523;SDS011;3295;38.928;-77.052;2023-08-17T11:13:48;6.47;;;2.13;;
6523;SDS011;3295;38.928;-77.052;2023-08-17T11:16:16;4.67;;;2.37;;
6523;SDS011;3295;38.928;-77.052;2023-08-17T11:18:45;5.37;;;2.63;;
6523;SDS011;3295;38.928;-77.052;2023-08-17T11:21:12;4.83;;;2.43;;
6523;SDS011;3295;38.928;-77.052;2023-08-17T11:23:41;3.13;;;2.23;;
6523;SDS011;3295;38.928;-77.052;2023-08-17T11:26:09;3.53;;;2.50;;
6523;SDS011;3295;38.928;-77.052;2023-08-17T11:28:36;5.57;;;2.67;;
6523;SDS011;3295;38.928;-77.052;2023-08-17T11:31:04;6.60;;;2.60;;
6523;SDS011;3295;38.928;-77.052;2023-08-17T11:33:31;3.87;;;2.60;;
6523;SDS011;3295;38.928;-77.052;2023-08-17T11:35:59;4.20;;;2.47;;
6523;SDS011;3295;38.928;-77.052;2023-08-17T11:38:27;3.37;;;2.50;;
6523;SDS011;3295;38.928;-77.052;2023-08-17T11:40:59;4.97;;;3.07;;
6523;SDS011;3295;38.928;-77.052;2023-08-17T11:43:27;4.70;;;2.87;;
6523;SDS011;3295;38.928;-77.052;2023-08-17T11:45:54;6.80;;;2.87;;
6523;SDS011;3295;38.928;-77.052;2023-08-17T11:48:21;5.60;;;2.63;;
6523;SDS011;3295;38.928;-77.052;2023-08-17T11:50:50;3.97;;;2.70;;
6523;SDS011;3295;38.928;-77.052;2023-08-17T11:53:17;4.07;;;2.40;;
6523;SDS011;3295;38.928;-77.052;2023-08-17T11:55:45;4.90;;;2.73;;
6523;SDS011;3295;38.928;-77.052;2023-08-17T11:58:14;3.97;;;2.40;;
6523;SDS011;3295;38.928;-77.052;2023-08-17T12:00:42;5.53;;;2.60;;
6523;SDS011;3295;38.928;-77.052;2023-08-17T12:03:13;5.80;;;2.87;;
6523;SDS011;3295;38.928;-77.052;2023-08-17T12:05:40;4.97;;;2.50;;
6523;SDS011;3295;38.928;-77.052;2023-08-17T12:08:07;4.33;;;2.87;;
6523;SDS011;3295;38.928;-77.052;2023-08-17T12:10:36;6.63;;;2.97;;
6523;SDS011;3295;38.928;-77.052;2023-08-17T12:13:04;6.17;;;2.63;;
6523;SDS011;3295;38.928;-77.052;2023-08-17T12:15:33;4.07;;;2.63;;
6523;SDS011;3295;38.928;-77.052;2023-08-17T12:18:02;4.10;;;2.90;;
6523;SDS011;3295;38.928;-77.052;2023-08-17T12:20:29;8.83;;;2.80;;
6523;SDS011;3295;38.928;-77.052;2023-08-17T12:22:57;5.53;;;2.83;;
6523;SDS011;3295;38.928;-77.052;2023-08-17T12:25:25;6.07;;;3.03;;
6523;SDS011;3295;38.928;-77.052;2023-08-17T12:27:52;5.33;;;2.80;;
6523;SDS011;3295;38.928;-77.052;2023-08-17T12:30:26;6.60;;;3.00;;
6523;SDS011;3295;38.928;-77.052;2023-08-17T12:32:55;5.73;;;3.00;;
6523;SDS011;3295;38.928;-77.052;2023-08-17T12:35:22;9.60;;;2.93;;
6523;SDS011;3295;38.928;-77.052;2023-08-17T12:37:50;4.47;;;3.10;;
6523;SDS011;3295;38.928;-77.052;2023-08-17T12:40:18;5.07;;;3.17;;
6523;SDS011;3295;38.928;-77.052;2023-08-17T12:42:45;5.60;;;3.17;;
6523;SDS011;3295;38.928;-77.052;2023-08-17T12:45:12;6.20;;;3.47;;
6523;SDS011;3295;38.928;-77.052;2023-08-17T12:47:40;5.87;;;3.27;;
6523;SDS011;3295;38.928;-77.052;2023-08-17T12:50:09;4.27;;;3.13;;
6523;SDS011;3295;38.928;-77.052;2023-08-17T12:52:37;5.87;;;3.33;;
6523;SDS011;3295;38.928;-77.052;2023-08-17T12:55:04;6.23;;;3.37;;
6523;SDS011;3295;38.928;-77.052;2023-08-17T12:57:31;6.23;;;3.50;;
6523;SDS011;3295;38.928;-77.052;2023-08-17T12:59:59;4.90;;;3.20;;
6523;SDS011;3295;38.928;-77.052;2023-08-17T13:02:26;6.60;;;3.30;;
6523;SDS011;3295;38.928;-77.052;2023-08-17T13:04:53;5.20;;;3.33;;
6523;SDS011;3295;38.928;-77.052;2023-08-17T13:07:22;7.10;;;3.20;;
6523;SDS011;3295;38.928;-77.052;2023-08-17T13:09:49;4.27;;;2.90;;
6523;SDS011;3295;38.928;-77.052;2023-08-17T13:12:16;6.97;;;3.13;;
6523;SDS011;3295;38.928;-77.052;2023-08-17T13:14:44;5.10;;;3.10;;
6523;SDS011;3295;38.928;-77.052;2023-08-17T13:17:11;5.10;;;3.00;;
6523;SDS011;3295;38.928;-77.052;2023-08-17T13:19:40;6.57;;;2.73;;
6523;SDS011;3295;38.928;-77.052;2023-08-17T13:22:07;4.77;;;3.20;;
6523;SDS011;3295;38.928;-77.052;2023-08-17T13:24:36;4.73;;;3.03;;
6523;SDS011;3295;38.928;-77.052;2023-08-17T13:27:03;6.63;;;3.30;;
6523;SDS011;3295;38.928;-77.052;2023-08-17T13:29:30;4.67;;;2.67;;
6523;SDS011;3295;38.928;-77.052;2023-08-17T13:31:57;7.37;;;3.43;;
6523;SDS011;3295;38.928;-77.052;2023-08-17T13:34:25;3.77;;;2.77;;
6523;SDS011;3295;38.928;-77.052;2023-08-17T13:36:52;4.73;;;2.87;;
6523;SDS011;3295;38.928;-77.052;2023-08-17T13:39:19;3.50;;;2.70;;
6523;SDS011;3295;38.928;-77.052;2023-08-17T13:41:48;3.93;;;2.90;;
6523;SDS011;3295;38.928;-77.052;2023-08-17T13:44:15;5.63;;;2.93;;
6523;SDS011;3295;38.928;-77.052;2023-08-17T13:46:42;4.13;;;3.20;;
6523;SDS011;3295;38.928;-77.052;2023-08-17T13:49:09;4.27;;;2.90;;
6523;SDS011;3295;38.928;-77.052;2023-08-17T13:51:37;4.43;;;3.00;;
6523;SDS011;3295;38.928;-77.052;2023-08-17T13:54:04;3.40;;;2.50;;
6523;SDS011;3295;38.928;-77.052;2023-08-17T13:56:31;4.93;;;3.10;;
6523;SDS011;3295;38.928;-77.052;2023-08-17T13:59:00;4.77;;;3.17;;
6523;SDS011;3295;38.928;-77.052;2023-08-17T14:01:28;5.30;;;3.13;;
6523;SDS011;3295;38.928;-77.052;2023-08-17T14:03:55;6.63;;;3.10;;
6523;SDS011;3295;38.928;-77.052;2023-08-17T14:06:22;5.37;;;3.40;;
6523;SDS011;3295;38.928;-77.052;2023-08-17T14:08:50;3.40;;;2.67;;
6523;SDS011;3295;38.928;-77.052;2023-08-17T14:11:17;4.23;;;3.07;;
6523;SDS011;3295;38.928;-77.052;2023-08-17T14:13:44;5.23;;;2.83;;
6523;SDS011;3295;38.928;-77.052;2023-08-17T14:16:13;4.70;;;2.90;;
6523;SDS011;3295;38.928;-77.052;2023-08-17T14:18:40;5.10;;;2.87;;
6523;SDS011;3295;38.928;-77.052;2023-08-17T14:21:07;3.17;;;2.53;;
6523;SDS011;3295;38.928;-77.052;2023-08-17T14:23:34;5.23;;;3.00;;
6523;SDS011;3295;38.928;-77.052;2023-08-17T14:26:01;3.93;;;2.80;;
6523;SDS011;3295;38.928;-77.052;2023-08-17T14:28:29;3.30;;;2.67;;
6523;SDS011;3295;38.928;-77.052;2023-08-17T14:30:56;5.90;;;3.33;;
6523;SDS011;3295;38.928;-77.052;2023-08-17T14:33:25;3.80;;;2.90;;
6523;SDS011;3295;38.928;-77.052;2023-08-17T14:35:52;5.40;;;3.13;;
6523;SDS011;3295;38.928;-77.052;2023-08-17T14:38:19;3.92;;;2.63;;
6523;SDS011;3295;38.928;-77.052;2023-08-17T14:40:47;3.88;;;3.05;;
6523;SDS011;3295;38.928;-77.052;2023-08-17T14:43:14;4.03;;;2.83;;
6523;SDS011;3295;38.928;-77.052;2023-08-17T14:45:42;4.28;;;3.03;;
6523;SDS011;3295;38.928;-77.052;2023-08-17T14:48:09;6.05;;;3.10;;
6523;SDS011;3295;38.928;-77.052;2023-08-17T14:50:38;4.60;;;3.20;;
6523;SDS011;3295;38.928;-77.052;2023-08-17T14:53:05;3.60;;;2.65;;